ADDS METAR Data INFO
IDs: Format: Raw Decoded Include TAF

Data at: 0345 UTC 17 Oct 2017

KEMM 170335Z AUTO 26007KT 10SM CLR 06/M13 A3041 RMK AO2
KEMM 170315Z AUTO 25007KT 10SM CLR 06/M12 A3041 RMK AO2
KEMM 170255Z AUTO 25005KT 10SM CLR 06/M13 A3041 RMK AO2
KEMM 170235Z AUTO 27004KT 10SM CLR 07/M12 A3041 RMK AO2
KEMM 170215Z AUTO 29006KT 10SM CLR 06/M12 A3041 RMK AO2
KEMM 170155Z AUTO 26003KT 10SM CLR 08/M13 A3041 RMK AO2
KEMM 170135Z AUTO 00000KT 10SM CLR 07/M12 A3041 RMK AO2
KEMM 170115Z AUTO 23003KT 10SM CLR 07/M12 A3040 RMK AO2
KEMM 170055Z AUTO 30007KT 10SM CLR 09/M12 A3040 RMK AO2
KEMM 170035Z AUTO 29008KT 10SM CLR 11/M12 A3040 RMK AO2
KEMM 170015Z AUTO 30008KT 10SM CLR 12/M12 A3040 RMK AO2
KEMM 162355Z AUTO 30008KT 10SM CLR 14/M13 A3040 RMK AO2
KEMM 162335Z AUTO 29010G18KT 10SM CLR 15/M13 A3040 RMK AO2
KEMM 162315Z AUTO 28014G19KT 10SM CLR 16/M13 A3039 RMK AO2
KEMM 162255Z AUTO 27013KT 10SM CLR 16/M13 A3039 RMK AO2
KEMM 162235Z AUTO 28015KT 10SM CLR 16/M14 A3040 RMK AO2
KEMM 162215Z AUTO 27010KT 10SM CLR 16/M15 A3040 RMK AO2
KEMM 162155Z AUTO 26012G19KT 10SM CLR 16/M13 A3040 RMK AO2
KEMM 162135Z AUTO 26014G20KT 10SM CLR 16/M14 A3040 RMK AO2
KEMM 162115Z AUTO 26014G19KT 10SM CLR 16/M14 A3040 RMK AO2
KEMM 162055Z AUTO 26016G21KT 10SM CLR 16/M14 A3040 RMK AO2
KEMM 162035Z AUTO 27015G21KT 10SM CLR 16/M14 A3040 RMK AO2
KEMM 162015Z AUTO 25017G20KT 10SM CLR 15/M15 A3041 RMK AO2
KEMM 161955Z AUTO 25016G21KT 10SM CLR 15/M15 A3041 RMK AO2
KEMM 161935Z AUTO 26011G18KT 10SM CLR 15/M15 A3042 RMK AO2
KEMM 161915Z AUTO 26013G19KT 10SM CLR 15/M16 A3043 RMK AO2
KEMM 161855Z AUTO 25015G21KT 10SM CLR 13/M16 A3044 RMK AO2
KEMM 161835Z AUTO 25015G22KT 10SM CLR 13/M16 A3045 RMK AO2
KEMM 161815Z AUTO 25015G20KT 10SM CLR 13/M15 A3045 RMK AO2
KEMM 161755Z AUTO 24013G19KT 10SM CLR 12/M15 A3046 RMK AO2
KEMM 161735Z AUTO 24013KT 10SM CLR 11/M15 A3046 RMK AO2
KEMM 161715Z AUTO 24010KT 10SM CLR 11/M14 A3046 RMK AO2
KEMM 161655Z AUTO 26009KT 10SM CLR 10/M14 A3046 RMK AO2
KEMM 161635Z AUTO 26004KT 10SM CLR 09/M12 A3046 RMK AO2
KEMM 161615Z AUTO 27005KT 10SM CLR 08/M11 A3046 RMK AO2
KEMM 161555Z AUTO 27003KT 10SM CLR 07/M11 A3046 RMK AO2
KEMM 161535Z AUTO 31004KT 10SM CLR 06/M13 A3046 RMK AO2
KEMM 161515Z AUTO 32007KT 10SM CLR 03/M13 A3046 RMK AO2
KEMM 161455Z AUTO 32008KT 10SM CLR 02/M13 A3045 RMK AO2
KEMM 161420Z AUTO 32010KT 10SM CLR 00/M12 A3044 RMK AO2
KEMM 161315Z AUTO 32011KT 10SM CLR M01/M12 A3043 RMK AO2
KEMM 161235Z AUTO 32009KT 10SM CLR M01/M11 A3043 RMK AO2
KEMM 161220Z AUTO 33008KT 10SM CLR M01/M11 A3043 RMK AO2
KEMM 161155Z AUTO 34008KT 10SM CLR M01/M11 A3043 RMK AO2
KEMM 161135Z AUTO 34008KT 10SM CLR M01/M10 A3043 RMK AO2
KEMM 161115Z AUTO 34008KT 10SM CLR M01/M10 A3043 RMK AO2
KEMM 161055Z AUTO 33008KT 10SM CLR 00/M11 A3044 RMK AO2
KEMM 161035Z AUTO 32010KT 10SM CLR 00/M10 A3044 RMK AO2
KEMM 161015Z AUTO 32010KT 10SM CLR 00/M10 A3044 RMK AO2
KEMM 160955Z AUTO 32010KT 10SM CLR 00/M10 A3044 RMK AO2
KEMM 160935Z AUTO 33009KT 10SM CLR 00/M09 A3044 RMK AO2
KEMM 160915Z AUTO 32008KT 10SM CLR 00/M09 A3045 RMK AO2
KEMM 160855Z AUTO 33008KT 10SM CLR 00/M08 A3045 RMK AO2
KEMM 160835Z AUTO 33009KT 10SM CLR M01/M08 A3045 RMK AO2
KEMM 160820Z AUTO 32008KT 10SM CLR M01/M08 A3045 RMK AO2
KEMM 160755Z AUTO 31006KT 10SM CLR M01/M07 A3046 RMK AO2
KEMM 160735Z AUTO 32006KT 10SM CLR M01/M07 A3045 RMK AO2
KEMM 160715Z AUTO 32007KT 10SM CLR M02/M07 A3045 RMK AO2
KEMM 160655Z AUTO 34005KT 10SM CLR M01/M07 A3046 RMK AO2
KEMM 160635Z AUTO 32006KT 10SM CLR M01/M07 A3046 RMK AO2
KEMM 160615Z AUTO 33005KT 10SM CLR 00/M07 A3046 RMK AO2
KEMM 160555Z AUTO 00000KT 10SM CLR M01/M07 A3046 RMK AO2
KEMM 160535Z AUTO 30006KT 10SM CLR 01/M07 A3046 RMK AO2
KEMM 160515Z AUTO 00000KT 10SM CLR 01/M07 A3047 RMK AO2
KEMM 160455Z AUTO 31006KT 10SM CLR 02/M07 A3047 RMK AO2
KEMM 160435Z AUTO 32006KT 10SM CLR 02/M07 A3047 RMK AO2
KEMM 160415Z AUTO 00000KT 10SM CLR 02/M08 A3048 RMK AO2
KEMM 160355Z AUTO 32004KT 10SM CLR 03/M08 A3048 RMK AO2
KEMM 160335Z AUTO 32007KT 10SM CLR 05/M09 A3047 RMK AO2
KEMM 160315Z AUTO 32009KT 10SM CLR 05/M08 A3047 RMK AO2
KEMM 160255Z AUTO 33009KT 10SM CLR 05/M08 A3048 RMK AO2
KEMM 160235Z AUTO 32007KT 10SM CLR 06/M09 A3048 RMK AO2
KEMM 160220Z AUTO 32007KT 10SM CLR 06/M09 A3048 RMK AO2
KEMM 160155Z AUTO 32006KT 10SM CLR 06/M10 A3047 RMK AO2
KEMM 160135Z AUTO 33006KT 10SM CLR 06/M10 A3046 RMK AO2
KEMM 160115Z AUTO 32004KT 10SM CLR 08/M10 A3046 RMK AO2
KEMM 160055Z AUTO 00000KT 10SM CLR 08/M11 A3047 RMK AO2
KEMM 160035Z AUTO 00000KT 10SM CLR 08/M11 A3047 RMK AO2
KEMM 160015Z AUTO 26006KT 10SM CLR 10/M10 A3047 RMK AO2
KEMM 152355Z AUTO 26007KT 10SM CLR 11/M12 A3047 RMK AO2
KEMM 152335Z AUTO 25008KT 10SM CLR 12/M13 A3047 RMK AO2
KEMM 152315Z AUTO 27008KT 10SM CLR 12/M13 A3047 RMK AO2
KEMM 152255Z AUTO 25009KT 10SM CLR 13/M13 A3047 RMK AO2
KEMM 152235Z AUTO 26009KT 10SM CLR 13/M13 A3048 RMK AO2
KEMM 152215Z AUTO 27008KT 10SM CLR 13/M12 A3048 RMK AO2
KEMM 152155Z AUTO 28008KT 10SM CLR 13/M12 A3048 RMK AO2
KEMM 152135Z AUTO 27008KT 10SM CLR 13/M12 A3048 RMK AO2
KEMM 152115Z AUTO 26008KT 10SM CLR 13/M12 A3048 RMK AO2
KEMM 152055Z AUTO 24008KT 10SM CLR 12/M14 A3048 RMK AO2
KEMM 152035Z AUTO 24008KT 10SM CLR 12/M14 A3049 RMK AO2
KEMM 152015Z AUTO 26006KT 10SM CLR 11/M14 A3050 RMK AO2
KEMM 151955Z AUTO 23007KT 10SM CLR 11/M13 A3051 RMK AO2
KEMM 151935Z AUTO 26008KT 10SM CLR 10/M15 A3051 RMK AO2
KEMM 151915Z AUTO 24007KT 10SM CLR 10/M17 A3053 RMK AO2
KEMM 151855Z AUTO 25007KT 10SM CLR 09/M13 A3053 RMK AO2 PNO
KEMM 151835Z AUTO 23006KT 10SM CLR 09/M12 A3054 RMK AO2
KEMM 151815Z AUTO 22004KT 10SM CLR 07/M16 A3054 RMK AO2
KEMM 151755Z AUTO 24006KT 10SM CLR 07/M16 A3055 RMK AO2
KEMM 151735Z AUTO 22005KT 10SM CLR 06/M15 A3056 RMK AO2
KEMM 151715Z AUTO 19004KT 10SM CLR 05/M10 A3056 RMK AO2
KEMM 151655Z AUTO 00000KT 10SM CLR 04/M08 A3056 RMK AO2
KEMM 151635Z AUTO 10003KT 10SM CLR 03/M08 A3056 RMK AO2
KEMM 151615Z AUTO 00000KT 10SM CLR 01/M08 A3056 RMK AO2
KEMM 151555Z AUTO 22004KT 10SM CLR 00/M08 A3056 RMK AO2